sensor_id;sensor_type;location;lat;lon;timestamp;P1;durP1;ratioP1;P2;durP2;ratioP2
35777;SDS011;21899;42.662;23.316;2022-08-21T00:01:50;37.35;;;21.63;;
35777;SDS011;21899;42.662;23.316;2022-08-21T00:04:16;43.00;;;23.95;;
35777;SDS011;21899;42.662;23.316;2022-08-21T00:06:41;43.22;;;25.05;;
35777;SDS011;21899;42.662;23.316;2022-08-21T00:09:07;42.22;;;22.80;;
35777;SDS011;21899;42.662;23.316;2022-08-21T00:11:34;35.95;;;21.63;;
35777;SDS011;21899;42.662;23.316;2022-08-21T00:14:01;36.92;;;21.25;;
35777;SDS011;21899;42.662;23.316;2022-08-21T00:16:27;39.20;;;22.30;;
35777;SDS011;21899;42.662;23.316;2022-08-21T00:18:53;34.00;;;21.52;;
35777;SDS011;21899;42.662;23.316;2022-08-21T00:21:18;37.22;;;21.88;;
35777;SDS011;21899;42.662;23.316;2022-08-21T00:23:44;43.70;;;24.83;;
35777;SDS011;21899;42.662;23.316;2022-08-21T00:26:09;40.88;;;22.70;;
35777;SDS011;21899;42.662;23.316;2022-08-21T00:28:35;36.00;;;22.23;;
35777;SDS011;21899;42.662;23.316;2022-08-21T00:31:01;39.03;;;21.08;;
35777;SDS011;21899;42.662;23.316;2022-08-21T00:33:29;40.60;;;23.50;;
35777;SDS011;21899;42.662;23.316;2022-08-21T00:35:55;48.47;;;24.88;;
35777;SDS011;21899;42.662;23.316;2022-08-21T00:38:20;41.08;;;22.38;;
35777;SDS011;21899;42.662;23.316;2022-08-21T00:43:24;38.80;;;21.13;;
35777;SDS011;21899;42.662;23.316;2022-08-21T00:45:52;37.75;;;21.55;;
35777;SDS011;21899;42.662;23.316;2022-08-21T00:48:19;43.83;;;22.35;;
35777;SDS011;21899;42.662;23.316;2022-08-21T00:51:00;45.03;;;22.33;;
35777;SDS011;21899;42.662;23.316;2022-08-21T00:53:30;46.38;;;23.75;;
35777;SDS011;21899;42.662;23.316;2022-08-21T00:55:57;39.40;;;22.33;;
35777;SDS011;21899;42.662;23.316;2022-08-21T00:58:24;41.67;;;23.38;;
35777;SDS011;21899;42.662;23.316;2022-08-21T01:00:52;42.67;;;20.83;;
35777;SDS011;21899;42.662;23.316;2022-08-21T01:03:19;43.58;;;21.85;;
35777;SDS011;21899;42.662;23.316;2022-08-21T01:05:46;41.20;;;22.27;;
35777;SDS011;21899;42.662;23.316;2022-08-21T01:08:13;38.25;;;21.73;;
35777;SDS011;21899;42.662;23.316;2022-08-21T01:10:41;40.92;;;21.38;;
35777;SDS011;21899;42.662;23.316;2022-08-21T01:13:07;35.88;;;19.30;;
35777;SDS011;21899;42.662;23.316;2022-08-21T01:15:36;36.75;;;20.58;;
35777;SDS011;21899;42.662;23.316;2022-08-21T01:18:07;30.30;;;18.23;;
35777;SDS011;21899;42.662;23.316;2022-08-21T01:20:34;29.75;;;17.67;;
35777;SDS011;21899;42.662;23.316;2022-08-21T01:23:02;27.65;;;15.05;;
35777;SDS011;21899;42.662;23.316;2022-08-21T01:25:28;22.67;;;13.57;;
35777;SDS011;21899;42.662;23.316;2022-08-21T01:27:54;22.05;;;12.73;;
35777;SDS011;21899;42.662;23.316;2022-08-21T01:30:22;21.88;;;11.90;;
35777;SDS011;21899;42.662;23.316;2022-08-21T01:32:50;18.45;;;10.20;;
35777;SDS011;21899;42.662;23.316;2022-08-21T01:35:18;17.52;;;9.25;;
35777;SDS011;21899;42.662;23.316;2022-08-21T01:37:44;15.77;;;8.90;;
35777;SDS011;21899;42.662;23.316;2022-08-21T01:40:10;15.85;;;8.00;;
35777;SDS011;21899;42.662;23.316;2022-08-21T01:42:36;10.85;;;7.57;;
35777;SDS011;21899;42.662;23.316;2022-08-21T01:45:03;14.10;;;7.80;;
35777;SDS011;21899;42.662;23.316;2022-08-21T01:47:30;17.98;;;8.82;;
35777;SDS011;21899;42.662;23.316;2022-08-21T01:49:56;11.27;;;7.53;;
35777;SDS011;21899;42.662;23.316;2022-08-21T01:52:21;12.85;;;7.50;;
35777;SDS011;21899;42.662;23.316;2022-08-21T01:54:47;13.25;;;7.40;;
35777;SDS011;21899;42.662;23.316;2022-08-21T01:57:12;16.08;;;7.93;;
35777;SDS011;21899;42.662;23.316;2022-08-21T01:59:38;12.15;;;7.03;;
35777;SDS011;21899;42.662;23.316;2022-08-21T02:02:04;11.07;;;7.13;;
35777;SDS011;21899;42.662;23.316;2022-08-21T02:04:30;12.77;;;6.68;;
35777;SDS011;21899;42.662;23.316;2022-08-21T02:06:56;10.85;;;7.15;;
35777;SDS011;21899;42.662;23.316;2022-08-21T02:09:21;13.75;;;6.38;;
35777;SDS011;21899;42.662;23.316;2022-08-21T02:11:47;17.45;;;7.47;;
35777;SDS011;21899;42.662;23.316;2022-08-21T02:14:13;8.57;;;5.93;;
35777;SDS011;21899;42.662;23.316;2022-08-21T02:16:40;12.63;;;6.30;;
35777;SDS011;21899;42.662;23.316;2022-08-21T02:19:06;10.50;;;6.00;;
35777;SDS011;21899;42.662;23.316;2022-08-21T02:21:32;12.10;;;6.18;;
35777;SDS011;21899;42.662;23.316;2022-08-21T02:23:58;14.90;;;6.97;;
35777;SDS011;21899;42.662;23.316;2022-08-21T02:26:23;12.63;;;6.47;;
35777;SDS011;21899;42.662;23.316;2022-08-21T02:28:49;12.82;;;6.45;;
35777;SDS011;21899;42.662;23.316;2022-08-21T02:31:15;10.05;;;7.03;;
35777;SDS011;21899;42.662;23.316;2022-08-21T02:33:40;12.35;;;7.22;;
35777;SDS011;21899;42.662;23.316;2022-08-21T02:36:07;12.95;;;7.65;;
35777;SDS011;21899;42.662;23.316;2022-08-21T02:38:34;12.40;;;7.50;;
35777;SDS011;21899;42.662;23.316;2022-08-21T02:41:03;17.13;;;8.25;;
35777;SDS011;21899;42.662;23.316;2022-08-21T02:43:33;15.30;;;8.25;;
35777;SDS011;21899;42.662;23.316;2022-08-21T02:45:59;16.98;;;8.20;;
35777;SDS011;21899;42.662;23.316;2022-08-21T02:48:26;14.65;;;7.82;;
35777;SDS011;21899;42.662;23.316;2022-08-21T02:51:03;16.90;;;8.63;;
35777;SDS011;21899;42.662;23.316;2022-08-21T02:53:30;13.88;;;6.90;;
35777;SDS011;21899;42.662;23.316;2022-08-21T02:55:57;11.88;;;8.15;;
35777;SDS011;21899;42.662;23.316;2022-08-21T02:58:26;14.15;;;6.85;;
35777;SDS011;21899;42.662;23.316;2022-08-21T03:00:56;14.95;;;7.30;;
35777;SDS011;21899;42.662;23.316;2022-08-21T03:03:23;11.95;;;7.60;;
35777;SDS011;21899;42.662;23.316;2022-08-21T03:05:49;17.58;;;8.30;;
35777;SDS011;21899;42.662;23.316;2022-08-21T03:08:15;16.67;;;8.70;;
35777;SDS011;21899;42.662;23.316;2022-08-21T03:10:43;14.38;;;8.13;;
35777;SDS011;21899;42.662;23.316;2022-08-21T03:13:11;17.17;;;8.32;;
35777;SDS011;21899;42.662;23.316;2022-08-21T03:15:37;13.68;;;8.68;;
35777;SDS011;21899;42.662;23.316;2022-08-21T03:18:03;18.02;;;8.23;;
35777;SDS011;21899;42.662;23.316;2022-08-21T03:20:30;15.05;;;9.10;;
35777;SDS011;21899;42.662;23.316;2022-08-21T03:22:57;18.58;;;8.93;;
35777;SDS011;21899;42.662;23.316;2022-08-21T03:25:24;12.68;;;8.35;;
35777;SDS011;21899;42.662;23.316;2022-08-21T03:27:50;15.30;;;8.48;;
35777;SDS011;21899;42.662;23.316;2022-08-21T03:30:16;16.58;;;9.18;;
35777;SDS011;21899;42.662;23.316;2022-08-21T03:32:43;18.65;;;9.25;;
35777;SDS011;21899;42.662;23.316;2022-08-21T03:35:09;24.35;;;12.68;;
35777;SDS011;21899;42.662;23.316;2022-08-21T03:37:35;27.13;;;15.52;;
35777;SDS011;21899;42.662;23.316;2022-08-21T03:40:02;33.20;;;14.82;;
35777;SDS011;21899;42.662;23.316;2022-08-21T03:42:29;29.13;;;16.42;;
35777;SDS011;21899;42.662;23.316;2022-08-21T03:44:55;30.92;;;16.10;;
35777;SDS011;21899;42.662;23.316;2022-08-21T03:47:20;39.45;;;19.23;;
35777;SDS011;21899;42.662;23.316;2022-08-21T03:49:47;45.35;;;22.08;;
35777;SDS011;21899;42.662;23.316;2022-08-21T03:52:12;38.30;;;20.13;;
35777;SDS011;21899;42.662;23.316;2022-08-21T03:54:38;35.85;;;19.52;;
35777;SDS011;21899;42.662;23.316;2022-08-21T03:57:05;40.30;;;19.42;;
35777;SDS011;21899;42.662;23.316;2022-08-21T03:59:30;36.13;;;18.98;;
35777;SDS011;21899;42.662;23.316;2022-08-21T04:01:59;30.63;;;18.13;;
35777;SDS011;21899;42.662;23.316;2022-08-21T04:04:27;30.98;;;17.90;;
35777;SDS011;21899;42.662;23.316;2022-08-21T04:06:54;21.70;;;10.57;;
35777;SDS011;21899;42.662;23.316;2022-08-21T04:09:20;17.40;;;10.60;;
35777;SDS011;21899;42.662;23.316;2022-08-21T04:11:46;19.48;;;11.70;;
35777;SDS011;21899;42.662;23.316;2022-08-21T04:14:12;20.80;;;10.32;;
35777;SDS011;21899;42.662;23.316;2022-08-21T04:16:39;18.13;;;9.82;;
35777;SDS011;21899;42.662;23.316;2022-08-21T04:19:06;23.17;;;9.73;;
35777;SDS011;21899;42.662;23.316;2022-08-21T04:21:32;16.42;;;8.25;;
35777;SDS011;21899;42.662;23.316;2022-08-21T04:23:58;15.30;;;7.80;;
35777;SDS011;21899;42.662;23.316;2022-08-21T04:26:24;14.75;;;7.70;;
35777;SDS011;21899;42.662;23.316;2022-08-21T04:28:50;16.95;;;8.43;;
35777;SDS011;21899;42.662;23.316;2022-08-21T04:31:17;18.35;;;9.05;;
35777;SDS011;21899;42.662;23.316;2022-08-21T04:33:43;16.85;;;8.80;;
35777;SDS011;21899;42.662;23.316;2022-08-21T04:36:09;23.08;;;9.50;;
35777;SDS011;21899;42.662;23.316;2022-08-21T04:38:35;16.10;;;9.70;;
35777;SDS011;21899;42.662;23.316;2022-08-21T04:41:01;13.85;;;8.95;;
35777;SDS011;21899;42.662;23.316;2022-08-21T04:43:26;17.40;;;9.77;;
35777;SDS011;21899;42.662;23.316;2022-08-21T04:45:53;15.35;;;9.70;;
35777;SDS011;21899;42.662;23.316;2022-08-21T04:48:20;19.75;;;11.20;;
35777;SDS011;21899;42.662;23.316;2022-08-21T04:53:20;18.70;;;11.55;;
35777;SDS011;21899;42.662;23.316;2022-08-21T04:56:10;16.48;;;10.25;;
35777;SDS011;21899;42.662;23.316;2022-08-21T04:58:37;16.02;;;10.45;;
35777;SDS011;21899;42.662;23.316;2022-08-21T05:01:04;16.70;;;9.52;;
35777;SDS011;21899;42.662;23.316;2022-08-21T05:03:34;19.73;;;10.63;;
35777;SDS011;21899;42.662;23.316;2022-08-21T05:06:03;16.15;;;10.02;;
35777;SDS011;21899;42.662;23.316;2022-08-21T05:08:31;15.65;;;9.65;;
35777;SDS011;21899;42.662;23.316;2022-08-21T05:10:56;16.33;;;9.40;;
35777;SDS011;21899;42.662;23.316;2022-08-21T05:13:23;15.93;;;8.82;;
35777;SDS011;21899;42.662;23.316;2022-08-21T05:15:48;16.27;;;8.75;;
35777;SDS011;21899;42.662;23.316;2022-08-21T05:18:14;16.02;;;8.88;;
35777;SDS011;21899;42.662;23.316;2022-08-21T05:20:39;15.63;;;7.55;;
35777;SDS011;21899;42.662;23.316;2022-08-21T05:23:08;14.55;;;7.82;;
35777;SDS011;21899;42.662;23.316;2022-08-21T05:25:36;12.25;;;8.07;;
35777;SDS011;21899;42.662;23.316;2022-08-21T05:28:02;15.13;;;9.45;;
35777;SDS011;21899;42.662;23.316;2022-08-21T05:30:28;14.13;;;8.23;;
35777;SDS011;21899;42.662;23.316;2022-08-21T05:32:57;14.60;;;8.40;;
35777;SDS011;21899;42.662;23.316;2022-08-21T05:35:23;14.27;;;7.97;;
35777;SDS011;21899;42.662;23.316;2022-08-21T05:37:49;15.63;;;7.85;;
35777;SDS011;21899;42.662;23.316;2022-08-21T05:40:15;15.45;;;8.57;;
35777;SDS011;21899;42.662;23.316;2022-08-21T05:42:40;18.58;;;8.10;;
35777;SDS011;21899;42.662;23.316;2022-08-21T05:45:06;14.10;;;8.43;;
35777;SDS011;21899;42.662;23.316;2022-08-21T05:47:31;19.25;;;8.68;;
35777;SDS011;21899;42.662;23.316;2022-08-21T05:49:57;13.30;;;8.15;;
35777;SDS011;21899;42.662;23.316;2022-08-21T05:52:22;12.23;;;7.35;;
35777;SDS011;21899;42.662;23.316;2022-08-21T05:54:48;13.18;;;8.02;;
35777;SDS011;21899;42.662;23.316;2022-08-21T05:57:14;12.43;;;7.70;;
35777;SDS011;21899;42.662;23.316;2022-08-21T05:59:39;13.32;;;8.13;;
35777;SDS011;21899;42.662;23.316;2022-08-21T06:02:05;12.77;;;7.57;;
35777;SDS011;21899;42.662;23.316;2022-08-21T06:04:35;13.95;;;8.48;;
35777;SDS011;21899;42.662;23.316;2022-08-21T06:07:01;20.33;;;8.82;;
35777;SDS011;21899;42.662;23.316;2022-08-21T06:09:26;14.80;;;9.85;;
35777;SDS011;21899;42.662;23.316;2022-08-21T06:11:52;14.52;;;9.35;;
35777;SDS011;21899;42.662;23.316;2022-08-21T06:14:17;15.38;;;9.93;;
35777;SDS011;21899;42.662;23.316;2022-08-21T06:16:43;17.05;;;9.35;;
35777;SDS011;21899;42.662;23.316;2022-08-21T06:19:08;16.30;;;9.23;;
35777;SDS011;21899;42.662;23.316;2022-08-21T06:21:34;18.52;;;9.70;;
35777;SDS011;21899;42.662;23.316;2022-08-21T06:23:59;17.45;;;10.32;;
35777;SDS011;21899;42.662;23.316;2022-08-21T06:26:25;13.25;;;8.90;;
35777;SDS011;21899;42.662;23.316;2022-08-21T06:28:50;14.95;;;9.98;;
35777;SDS011;21899;42.662;23.316;2022-08-21T06:31:18;15.65;;;9.65;;
35777;SDS011;21899;42.662;23.316;2022-08-21T06:33:50;17.88;;;10.10;;
35777;SDS011;21899;42.662;23.316;2022-08-21T06:36:16;14.02;;;8.32;;
35777;SDS011;21899;42.662;23.316;2022-08-21T06:38:42;13.32;;;9.00;;
35777;SDS011;21899;42.662;23.316;2022-08-21T06:41:07;13.75;;;8.90;;
35777;SDS011;21899;42.662;23.316;2022-08-21T06:43:33;15.38;;;8.85;;
35777;SDS011;21899;42.662;23.316;2022-08-21T06:45:58;14.48;;;8.85;;
35777;SDS011;21899;42.662;23.316;2022-08-21T06:48:24;13.20;;;8.30;;
35777;SDS011;21899;42.662;23.316;2022-08-21T06:50:49;15.38;;;7.75;;
35777;SDS011;21899;42.662;23.316;2022-08-21T06:53:16;14.10;;;9.45;;
35777;SDS011;21899;42.662;23.316;2022-08-21T06:55:43;16.55;;;8.40;;
35777;SDS011;21899;42.662;23.316;2022-08-21T06:58:09;15.70;;;8.43;;
35777;SDS011;21899;42.662;23.316;2022-08-21T07:00:38;18.95;;;8.70;;
35777;SDS011;21899;42.662;23.316;2022-08-21T07:03:04;13.63;;;8.18;;
35777;SDS011;21899;42.662;23.316;2022-08-21T07:05:30;13.50;;;7.60;;
35777;SDS011;21899;42.662;23.316;2022-08-21T07:07:55;11.43;;;7.63;;
35777;SDS011;21899;42.662;23.316;2022-08-21T07:10:22;15.63;;;9.63;;
35777;SDS011;21899;42.662;23.316;2022-08-21T07:12:49;15.55;;;8.10;;
35777;SDS011;21899;42.662;23.316;2022-08-21T07:15:16;12.65;;;7.55;;
35777;SDS011;21899;42.662;23.316;2022-08-21T07:17:42;16.10;;;8.13;;
35777;SDS011;21899;42.662;23.316;2022-08-21T07:20:07;14.30;;;7.65;;
35777;SDS011;21899;42.662;23.316;2022-08-21T07:22:35;10.18;;;7.65;;
35777;SDS011;21899;42.662;23.316;2022-08-21T07:25:02;13.45;;;8.85;;
35777;SDS011;21899;42.662;23.316;2022-08-21T07:27:29;22.27;;;9.18;;
35777;SDS011;21899;42.662;23.316;2022-08-21T07:29:55;17.38;;;8.32;;
35777;SDS011;21899;42.662;23.316;2022-08-21T07:32:21;14.60;;;8.88;;
35777;SDS011;21899;42.662;23.316;2022-08-21T07:34:46;11.57;;;7.53;;
35777;SDS011;21899;42.662;23.316;2022-08-21T07:37:12;14.02;;;8.70;;
35777;SDS011;21899;42.662;23.316;2022-08-21T07:39:37;14.70;;;7.10;;
35777;SDS011;21899;42.662;23.316;2022-08-21T07:42:02;17.05;;;8.75;;
35777;SDS011;21899;42.662;23.316;2022-08-21T07:44:28;14.73;;;7.82;;
35777;SDS011;21899;42.662;23.316;2022-08-21T07:46:54;13.27;;;8.18;;
35777;SDS011;21899;42.662;23.316;2022-08-21T07:49:19;11.23;;;7.13;;
35777;SDS011;21899;42.662;23.316;2022-08-21T07:51:44;10.32;;;7.00;;
35777;SDS011;21899;42.662;23.316;2022-08-21T07:54:10;14.65;;;8.18;;
35777;SDS011;21899;42.662;23.316;2022-08-21T07:56:36;17.23;;;7.18;;
35777;SDS011;21899;42.662;23.316;2022-08-21T07:59:01;13.77;;;7.47;;
35777;SDS011;21899;42.662;23.316;2022-08-21T08:01:27;21.75;;;8.75;;
35777;SDS011;21899;42.662;23.316;2022-08-21T08:03:53;15.23;;;8.88;;
35777;SDS011;21899;42.662;23.316;2022-08-21T08:06:20;15.35;;;9.38;;
35777;SDS011;21899;42.662;23.316;2022-08-21T08:08:45;16.30;;;9.30;;
35777;SDS011;21899;42.662;23.316;2022-08-21T08:11:12;20.58;;;10.43;;
35777;SDS011;21899;42.662;23.316;2022-08-21T08:13:44;14.65;;;10.02;;
35777;SDS011;21899;42.662;23.316;2022-08-21T08:16:11;17.88;;;10.20;;
35777;SDS011;21899;42.662;23.316;2022-08-21T08:18:37;15.23;;;9.95;;
35777;SDS011;21899;42.662;23.316;2022-08-21T08:21:03;20.25;;;11.68;;
35777;SDS011;21899;42.662;23.316;2022-08-21T08:23:29;22.90;;;11.30;;
35777;SDS011;21899;42.662;23.316;2022-08-21T08:25:55;17.33;;;11.32;;
35777;SDS011;21899;42.662;23.316;2022-08-21T08:28:21;16.13;;;10.60;;
35777;SDS011;21899;42.662;23.316;2022-08-21T08:30:47;14.93;;;11.32;;
35777;SDS011;21899;42.662;23.316;2022-08-21T08:33:12;21.67;;;10.52;;
35777;SDS011;21899;42.662;23.316;2022-08-21T08:35:40;20.92;;;11.07;;
35777;SDS011;21899;42.662;23.316;2022-08-21T08:38:07;13.63;;;8.65;;
35777;SDS011;21899;42.662;23.316;2022-08-21T08:40:41;14.90;;;8.77;;
35777;SDS011;21899;42.662;23.316;2022-08-21T08:43:27;14.07;;;9.13;;
35777;SDS011;21899;42.662;23.316;2022-08-21T08:45:55;16.23;;;9.27;;
35777;SDS011;21899;42.662;23.316;2022-08-21T08:51:09;12.80;;;8.52;;
35777;SDS011;21899;42.662;23.316;2022-08-21T08:53:52;15.20;;;9.15;;
35777;SDS011;21899;42.662;23.316;2022-08-21T08:56:26;19.08;;;10.35;;
35777;SDS011;21899;42.662;23.316;2022-08-21T08:58:56;16.60;;;9.55;;
35777;SDS011;21899;42.662;23.316;2022-08-21T09:01:25;13.77;;;8.90;;
35777;SDS011;21899;42.662;23.316;2022-08-21T09:03:51;16.17;;;8.27;;
35777;SDS011;21899;42.662;23.316;2022-08-21T09:11:28;14.77;;;7.17;;
35777;SDS011;21899;42.662;23.316;2022-08-21T09:25:40;14.07;;;7.63;;
35777;SDS011;21899;42.662;23.316;2022-08-21T09:28:11;14.48;;;7.38;;
35777;SDS011;21899;42.662;23.316;2022-08-21T09:30:39;12.60;;;7.05;;
35777;SDS011;21899;42.662;23.316;2022-08-21T09:33:06;10.40;;;6.13;;
35777;SDS011;21899;42.662;23.316;2022-08-21T09:35:32;9.90;;;6.43;;
35777;SDS011;21899;42.662;23.316;2022-08-21T09:38:04;11.75;;;6.18;;
35777;SDS011;21899;42.662;23.316;2022-08-21T09:43:20;15.10;;;7.00;;
35777;SDS011;21899;42.662;23.316;2022-08-21T09:45:47;13.60;;;5.68;;
35777;SDS011;21899;42.662;23.316;2022-08-21T09:50:45;9.95;;;6.38;;
35777;SDS011;21899;42.662;23.316;2022-08-21T09:53:22;11.38;;;6.15;;
35777;SDS011;21899;42.662;23.316;2022-08-21T09:55:52;12.45;;;5.88;;
35777;SDS011;21899;42.662;23.316;2022-08-21T09:58:41;9.07;;;5.22;;
35777;SDS011;21899;42.662;23.316;2022-08-21T10:01:15;9.02;;;6.20;;
35777;SDS011;21899;42.662;23.316;2022-08-21T10:03:45;9.52;;;6.40;;
35777;SDS011;21899;42.662;23.316;2022-08-21T10:06:20;11.40;;;6.25;;
35777;SDS011;21899;42.662;23.316;2022-08-21T10:08:48;14.95;;;6.97;;
35777;SDS011;21899;42.662;23.316;2022-08-21T10:11:14;14.45;;;7.20;;
35777;SDS011;21899;42.662;23.316;2022-08-21T10:14:04;9.23;;;6.13;;
35777;SDS011;21899;42.662;23.316;2022-08-21T10:16:52;10.32;;;7.20;;
35777;SDS011;21899;42.662;23.316;2022-08-21T10:25:42;12.15;;;7.13;;
35777;SDS011;21899;42.662;23.316;2022-08-21T10:56:43;11.90;;;6.95;;
35777;SDS011;21899;42.662;23.316;2022-08-21T11:07:32;12.98;;;7.22;;
35777;SDS011;21899;42.662;23.316;2022-08-21T11:10:03;11.32;;;6.65;;
35777;SDS011;21899;42.662;23.316;2022-08-21T11:12:38;10.90;;;6.70;;
35777;SDS011;21899;42.662;23.316;2022-08-21T11:17:47;11.70;;;6.75;;
35777;SDS011;21899;42.662;23.316;2022-08-21T11:20:38;11.18;;;6.88;;
35777;SDS011;21899;42.662;23.316;2022-08-21T11:23:11;8.32;;;5.65;;
35777;SDS011;21899;42.662;23.316;2022-08-21T11:25:46;11.73;;;6.20;;
35777;SDS011;21899;42.662;23.316;2022-08-21T11:28:19;10.15;;;5.90;;
35777;SDS011;21899;42.662;23.316;2022-08-21T11:31:14;13.10;;;6.15;;
35777;SDS011;21899;42.662;23.316;2022-08-21T11:41:55;12.65;;;6.47;;
35777;SDS011;21899;42.662;23.316;2022-08-21T11:47:13;8.63;;;5.63;;
35777;SDS011;21899;42.662;23.316;2022-08-21T11:52:48;13.98;;;6.13;;
35777;SDS011;21899;42.662;23.316;2022-08-21T11:58:38;7.80;;;5.20;;
35777;SDS011;21899;42.662;23.316;2022-08-21T12:01:09;7.72;;;5.10;;
35777;SDS011;21899;42.662;23.316;2022-08-21T12:04:25;11.48;;;5.55;;
35777;SDS011;21899;42.662;23.316;2022-08-21T12:06:37;8.52;;;5.68;;
35777;SDS011;21899;42.662;23.316;2022-08-21T12:09:28;7.30;;;5.00;;
35777;SDS011;21899;42.662;23.316;2022-08-21T12:17:40;11.30;;;5.80;;
35777;SDS011;21899;42.662;23.316;2022-08-21T12:22:52;14.40;;;7.45;;
35777;SDS011;21899;42.662;23.316;2022-08-21T12:26:01;16.25;;;7.90;;
35777;SDS011;21899;42.662;23.316;2022-08-21T12:28:34;11.25;;;6.10;;
35777;SDS011;21899;42.662;23.316;2022-08-21T12:31:00;11.05;;;6.20;;
35777;SDS011;21899;42.662;23.316;2022-08-21T12:33:30;14.15;;;5.05;;
35777;SDS011;21899;42.662;23.316;2022-08-21T12:38:48;13.05;;;5.45;;
35777;SDS011;21899;42.662;23.316;2022-08-21T12:41:24;8.05;;;5.45;;
35777;SDS011;21899;42.662;23.316;2022-08-21T12:43:52;9.65;;;5.38;;
35777;SDS011;21899;42.662;23.316;2022-08-21T12:47:11;8.00;;;5.40;;
35777;SDS011;21899;42.662;23.316;2022-08-21T12:49:44;10.32;;;5.20;;
35777;SDS011;21899;42.662;23.316;2022-08-21T12:52:21;8.63;;;5.45;;
35777;SDS011;21899;42.662;23.316;2022-08-21T12:54:47;10.52;;;5.43;;
35777;SDS011;21899;42.662;23.316;2022-08-21T12:57:46;10.45;;;5.30;;
35777;SDS011;21899;42.662;23.316;2022-08-21T13:00:06;10.77;;;5.57;;
35777;SDS011;21899;42.662;23.316;2022-08-21T13:02:48;12.55;;;5.45;;
35777;SDS011;21899;42.662;23.316;2022-08-21T13:05:22;11.90;;;5.38;;
35777;SDS011;21899;42.662;23.316;2022-08-21T13:07:49;9.70;;;5.38;;
35777;SDS011;21899;42.662;23.316;2022-08-21T13:10:23;9.65;;;5.03;;
35777;SDS011;21899;42.662;23.316;2022-08-21T13:12:56;12.18;;;5.00;;
35777;SDS011;21899;42.662;23.316;2022-08-21T13:15:32;10.40;;;4.93;;
35777;SDS011;21899;42.662;23.316;2022-08-21T13:17:59;9.27;;;5.43;;
35777;SDS011;21899;42.662;23.316;2022-08-21T13:20:28;7.65;;;5.10;;
35777;SDS011;21899;42.662;23.316;2022-08-21T13:22:56;8.90;;;5.25;;
35777;SDS011;21899;42.662;23.316;2022-08-21T13:25:25;8.82;;;5.00;;
35777;SDS011;21899;42.662;23.316;2022-08-21T13:28:03;9.25;;;5.22;;
35777;SDS011;21899;42.662;23.316;2022-08-21T13:30:31;9.02;;;5.20;;
35777;SDS011;21899;42.662;23.316;2022-08-21T13:32:58;8.45;;;4.80;;
35777;SDS011;21899;42.662;23.316;2022-08-21T13:36:14;10.52;;;5.38;;
35777;SDS011;21899;42.662;23.316;2022-08-21T13:38:15;12.07;;;5.20;;
35777;SDS011;21899;42.662;23.316;2022-08-21T13:40:44;10.38;;;5.28;;
35777;SDS011;21899;42.662;23.316;2022-08-21T13:43:12;7.95;;;5.22;;
35777;SDS011;21899;42.662;23.316;2022-08-21T13:45:43;8.65;;;4.65;;
35777;SDS011;21899;42.662;23.316;2022-08-21T13:48:12;7.75;;;5.00;;
35777;SDS011;21899;42.662;23.316;2022-08-21T13:50:37;10.38;;;5.05;;
35777;SDS011;21899;42.662;23.316;2022-08-21T13:53:05;13.07;;;5.15;;
35777;SDS011;21899;42.662;23.316;2022-08-21T13:55:42;9.57;;;5.47;;
35777;SDS011;21899;42.662;23.316;2022-08-21T13:58:09;11.80;;;5.72;;
35777;SDS011;21899;42.662;23.316;2022-08-21T14:00:46;7.65;;;5.20;;
35777;SDS011;21899;42.662;23.316;2022-08-21T14:03:23;9.75;;;5.18;;
35777;SDS011;21899;42.662;23.316;2022-08-21T14:05:53;9.73;;;5.47;;
35777;SDS011;21899;42.662;23.316;2022-08-21T14:08:37;10.68;;;5.97;;
35777;SDS011;21899;42.662;23.316;2022-08-21T14:11:06;14.38;;;5.75;;
35777;SDS011;21899;42.662;23.316;2022-08-21T14:13:43;10.27;;;5.93;;
35777;SDS011;21899;42.662;23.316;2022-08-21T14:16:43;12.73;;;7.22;;
35777;SDS011;21899;42.662;23.316;2022-08-21T14:19:22;9.02;;;5.80;;
35777;SDS011;21899;42.662;23.316;2022-08-21T14:25:28;12.90;;;6.18;;
35777;SDS011;21899;42.662;23.316;2022-08-21T14:30:39;12.73;;;5.70;;
35777;SDS011;21899;42.662;23.316;2022-08-21T14:33:10;14.35;;;5.90;;
35777;SDS011;21899;42.662;23.316;2022-08-21T14:35:37;10.90;;;6.20;;
35777;SDS011;21899;42.662;23.316;2022-08-21T14:38:13;10.45;;;6.75;;
35777;SDS011;21899;42.662;23.316;2022-08-21T14:40:40;10.48;;;6.20;;
35777;SDS011;21899;42.662;23.316;2022-08-21T14:43:07;14.52;;;6.97;;
35777;SDS011;21899;42.662;23.316;2022-08-21T14:45:33;13.38;;;6.32;;
35777;SDS011;21899;42.662;23.316;2022-08-21T14:47:59;13.90;;;6.90;;
35777;SDS011;21899;42.662;23.316;2022-08-21T14:50:25;9.02;;;6.80;;
35777;SDS011;21899;42.662;23.316;2022-08-21T14:52:50;10.75;;;7.50;;
35777;SDS011;21899;42.662;23.316;2022-08-21T14:55:16;10.00;;;7.45;;
35777;SDS011;21899;42.662;23.316;2022-08-21T14:57:45;15.82;;;8.75;;
35777;SDS011;21899;42.662;23.316;2022-08-21T15:00:13;12.75;;;8.02;;
35777;SDS011;21899;42.662;23.316;2022-08-21T15:02:41;21.92;;;8.30;;
35777;SDS011;21899;42.662;23.316;2022-08-21T15:05:07;14.90;;;8.73;;
35777;SDS011;21899;42.662;23.316;2022-08-21T15:07:33;12.52;;;7.65;;
35777;SDS011;21899;42.662;23.316;2022-08-21T15:09:59;14.75;;;8.48;;
35777;SDS011;21899;42.662;23.316;2022-08-21T15:12:24;11.60;;;7.55;;
35777;SDS011;21899;42.662;23.316;2022-08-21T15:14:50;14.30;;;8.00;;
35777;SDS011;21899;42.662;23.316;2022-08-21T15:17:15;11.23;;;7.35;;
35777;SDS011;21899;42.662;23.316;2022-08-21T15:19:41;14.80;;;7.43;;
35777;SDS011;21899;42.662;23.316;2022-08-21T15:22:07;16.10;;;8.13;;
35777;SDS011;21899;42.662;23.316;2022-08-21T15:24:32;11.23;;;7.15;;
35777;SDS011;21899;42.662;23.316;2022-08-21T15:26:59;9.18;;;6.57;;
35777;SDS011;21899;42.662;23.316;2022-08-21T15:29:26;17.70;;;7.75;;
35777;SDS011;21899;42.662;23.316;2022-08-21T15:31:55;13.00;;;7.93;;
35777;SDS011;21899;42.662;23.316;2022-08-21T15:34:23;15.07;;;7.57;;
35777;SDS011;21899;42.662;23.316;2022-08-21T15:36:49;11.68;;;7.45;;
35777;SDS011;21899;42.662;23.316;2022-08-21T15:39:15;11.95;;;7.32;;
35777;SDS011;21899;42.662;23.316;2022-08-21T15:41:40;10.45;;;6.75;;
35777;SDS011;21899;42.662;23.316;2022-08-21T15:44:06;9.10;;;6.28;;
35777;SDS011;21899;42.662;23.316;2022-08-21T15:46:33;18.80;;;7.20;;
35777;SDS011;21899;42.662;23.316;2022-08-21T15:48:59;12.45;;;5.82;;
35777;SDS011;21899;42.662;23.316;2022-08-21T15:51:24;10.98;;;6.35;;
35777;SDS011;21899;42.662;23.316;2022-08-21T15:53:50;13.27;;;6.68;;
35777;SDS011;21899;42.662;23.316;2022-08-21T15:56:26;9.07;;;6.20;;
35777;SDS011;21899;42.662;23.316;2022-08-21T15:58:54;11.75;;;6.85;;
35777;SDS011;21899;42.662;23.316;2022-08-21T16:01:24;12.38;;;6.65;;
35777;SDS011;21899;42.662;23.316;2022-08-21T16:03:50;11.73;;;6.75;;
35777;SDS011;21899;42.662;23.316;2022-08-21T16:06:18;12.25;;;6.95;;
35777;SDS011;21899;42.662;23.316;2022-08-21T16:08:44;13.07;;;7.60;;
35777;SDS011;21899;42.662;23.316;2022-08-21T16:11:11;11.18;;;7.47;;
35777;SDS011;21899;42.662;23.316;2022-08-21T16:13:39;13.00;;;6.68;;
35777;SDS011;21899;42.662;23.316;2022-08-21T16:16:07;11.30;;;7.10;;
35777;SDS011;21899;42.662;23.316;2022-08-21T16:18:38;13.15;;;7.40;;
35777;SDS011;21899;42.662;23.316;2022-08-21T16:21:05;11.88;;;6.57;;